Flight Track Log - Related Links

Times and Time Zones

All times are in EDT time to prevent confusion due to time zone crossing. See the N9225V flight status page for this flight to view local times or setup timezone preferences in your user account.

Time Position Orientation Groundspeed Altitude Reporting Facility
EDT Latitude Longitude Course Direction KTS MPH feet Rate Location/Type
Fri 07:47:28 PM 40.3000 -75.9000 122° Southeast 104 120 3,900  Level Philadelphia TRACON
Fri 07:48:28 PM 40.2667 -75.8833 159° South 114 131 4,600 650 Climbing Philadelphia TRACON
Fri 07:49:28 PM 40.2500 -75.8667 143° Southeast 118 136 5,200 298 Climbing Philadelphia TRACON
Fri 07:50:00 PM 40.3523 -75.6560 74° East  Level Estimated
Fri 07:50:29 PM 40.2167 -75.8333 143° Southeast 150 173 5,200  Level Philadelphia TRACON
Fri 07:51:00 PM 40.3314 -75.6119 122° Southeast  Level FlightAware Approximate
Fri 07:51:29 PM 40.1833 -75.8000 143° Southeast 147 169 5,200  Level Philadelphia TRACON
Fri 07:52:00 PM 40.3105 -75.5679 122° Southeast  Level FlightAware Approximate
Fri 07:52:29 PM 40.1500 -75.7667 143° Southeast 134 154 5,200  Level Philadelphia TRACON
Fri 07:53:29 PM 40.1667 -75.7333 57° Northeast 122 140 5,200  Level Philadelphia TRACON
Fri 07:54:29 PM 40.1833 -75.6833 66° East 124 143 5,200  Level Philadelphia TRACON
Fri 07:55:29 PM 40.2000 -75.6500 57° Northeast 125 144 5,200  Level Philadelphia TRACON
Fri 07:56:29 PM 40.2167 -75.6167 57° Northeast 126 145 5,200 -150 Level Philadelphia TRACON
Fri 07:57:29 PM 40.2333 -75.5667 66° East 129 148 4,900 -400 Descending Philadelphia TRACON
Fri 07:58:29 PM 40.2500 -75.5167 66° East 140 161 4,400 -350 Descending Philadelphia TRACON
Fri 07:59:29 PM 40.2667 -75.4667 66° East 141 162 4,200 -100 Descending Philadelphia TRACON
Fri 08:00:29 PM 40.2833 -75.4333 57° Northeast 124 143 4,200 -50 Level Philadelphia TRACON
Fri 08:01:29 PM 40.3000 -75.3833 66° East 124 143 4,100  Descending Philadelphia TRACON
Fri 08:02:29 PM 40.3000 -75.3500 90° East 124 143 4,200 48 Climbing Philadelphia TRACON
Fri 08:03:35 PM 40.3167 -75.3000 66° East 124 143 4,200 -100 Level Philadelphia TRACON
Fri 08:04:29 PM 40.3333 -75.2667 57° Northeast 123 142 4,000 -421 Descending Philadelphia TRACON
Fri 08:05:29 PM 40.3500 -75.2167 66° East 147 169 3,400 -550 Descending Philadelphia TRACON
Fri 08:06:29 PM 40.3667 -75.1667 66° East 144 166 2,900 -248 Descending Philadelphia TRACON
Fri 08:07:30 PM 40.3833 -75.1333 57° Northeast 127 146 2,900  Level Philadelphia TRACON
Fri 08:08:30 PM 40.4000 -75.0833 66° East 117 135 2,900  Level Philadelphia TRACON
Fri 08:09:30 PM 40.4167 -75.0500 57° Northeast 105 121 2,900  Level Philadelphia TRACON
Fri 08:10:30 PM 40.4167 -75.0167 90° East 103 119 2,900  Level Philadelphia TRACON
Fri 08:11:36 PM 40.4333 -74.9833 57° Northeast 105 121 2,900 53 Level Philadelphia TRACON
Fri 08:12:24 PM 40.4333 -74.9500 90° East 101 116 3,000  Climbing Philadelphia TRACON
Fri 08:13:24 PM 40.4167 -74.9333 143° Southeast 84 97 2,900 -400 Descending Philadelphia TRACON
Fri 08:14:24 PM 40.4000 -74.9167 143° Southeast 90 104 2,200 -400 Descending Philadelphia TRACON
Fri 08:15:24 PM 40.3667 -74.9000 159° South 80 92 2,100 -50 Descending Philadelphia TRACON
Fri 08:16:24 PM 40.3500 -74.8833 143° Southeast 77 89 2,100 -200 Level Philadelphia TRACON
Fri 08:17:24 PM 40.3333 -74.8667 143° Southeast 83 96 1,700 -400 Descending Philadelphia TRACON
Fri 08:18:24 PM 40.3167 -74.8500 143° Southeast 69 79 1,300 -397 Descending Philadelphia TRACON
Fri 08:19:25 PM 40.3000 -74.8333 143° Southeast 74 85 900 -393 Descending Philadelphia TRACON
Fri 08:21:00 PM 40.2767 -74.8135 78° East  Level Estimated
Fri 08:28:00 PM 40.2767 -74.8135 78° East  Level Estimated

Login

Don't have an account? Register now (free) for customized features, flight alerts, and more!